sensor_id;sensor_type;location;lat;lon;timestamp;temperature;humidity
28677;DHT22;15858;48.338;11.078;2023-02-13T00:00:18;2.10;99.90
28677;DHT22;15858;48.338;11.078;2023-02-13T00:02:45;2.00;99.90
28677;DHT22;15858;48.338;11.078;2023-02-13T00:05:12;2.10;99.90
28677;DHT22;15858;48.338;11.078;2023-02-13T00:07:39;2.00;99.90
28677;DHT22;15858;48.338;11.078;2023-02-13T00:10:06;2.00;99.90
28677;DHT22;15858;48.338;11.078;2023-02-13T00:12:33;1.80;99.90
28677;DHT22;15858;48.338;11.078;2023-02-13T00:15:00;1.70;99.90
28677;DHT22;15858;48.338;11.078;2023-02-13T00:17:26;1.80;99.90
28677;DHT22;15858;48.338;11.078;2023-02-13T00:19:53;1.90;99.90
28677;DHT22;15858;48.338;11.078;2023-02-13T00:22:20;2.10;99.90
28677;DHT22;15858;48.338;11.078;2023-02-13T00:24:46;2.00;99.90
28677;DHT22;15858;48.338;11.078;2023-02-13T00:27:13;1.90;99.90
28677;DHT22;15858;48.338;11.078;2023-02-13T00:29:39;2.00;99.90
28677;DHT22;15858;48.338;11.078;2023-02-13T00:32:06;1.90;99.90
28677;DHT22;15858;48.338;11.078;2023-02-13T00:34:33;1.80;99.90
28677;DHT22;15858;48.338;11.078;2023-02-13T00:36:59;1.80;99.90
28677;DHT22;15858;48.338;11.078;2023-02-13T00:39:26;1.90;99.90
28677;DHT22;15858;48.338;11.078;2023-02-13T00:41:53;1.90;99.90
28677;DHT22;15858;48.338;11.078;2023-02-13T00:44:19;1.80;99.90
28677;DHT22;15858;48.338;11.078;2023-02-13T00:46:46;1.80;99.90
28677;DHT22;15858;48.338;11.078;2023-02-13T00:49:12;1.80;99.90
28677;DHT22;15858;48.338;11.078;2023-02-13T00:51:39;1.80;99.90
28677;DHT22;15858;48.338;11.078;2023-02-13T00:54:06;1.80;99.90
28677;DHT22;15858;48.338;11.078;2023-02-13T00:56:32;2.00;99.90
28677;DHT22;15858;48.338;11.078;2023-02-13T00:58:59;1.90;99.90
28677;DHT22;15858;48.338;11.078;2023-02-13T01:01:25;1.90;99.90
28677;DHT22;15858;48.338;11.078;2023-02-13T01:03:52;2.00;99.90
28677;DHT22;15858;48.338;11.078;2023-02-13T01:06:19;2.00;99.90
28677;DHT22;15858;48.338;11.078;2023-02-13T01:08:45;2.00;99.90
28677;DHT22;15858;48.338;11.078;2023-02-13T01:11:12;1.90;99.90
28677;DHT22;15858;48.338;11.078;2023-02-13T01:13:38;1.90;99.90
28677;DHT22;15858;48.338;11.078;2023-02-13T01:16:05;1.90;99.90
28677;DHT22;15858;48.338;11.078;2023-02-13T01:18:32;1.80;99.90
28677;DHT22;15858;48.338;11.078;2023-02-13T01:21:05;1.80;99.90
28677;DHT22;15858;48.338;11.078;2023-02-13T01:23:34;1.70;99.90
28677;DHT22;15858;48.338;11.078;2023-02-13T01:26:05;1.80;99.90
28677;DHT22;15858;48.338;11.078;2023-02-13T01:28:33;1.80;99.90
28677;DHT22;15858;48.338;11.078;2023-02-13T01:31:00;1.80;99.90
28677;DHT22;15858;48.338;11.078;2023-02-13T01:33:28;1.80;99.90
28677;DHT22;15858;48.338;11.078;2023-02-13T01:35:55;2.00;99.90
28677;DHT22;15858;48.338;11.078;2023-02-13T01:38:21;2.00;99.90
28677;DHT22;15858;48.338;11.078;2023-02-13T01:40:50;2.00;99.90
28677;DHT22;15858;48.338;11.078;2023-02-13T01:43:18;2.10;99.90
28677;DHT22;15858;48.338;11.078;2023-02-13T01:45:47;1.90;99.90
28677;DHT22;15858;48.338;11.078;2023-02-13T01:48:22;1.80;99.90
28677;DHT22;15858;48.338;11.078;2023-02-13T01:50:58;1.80;99.90
28677;DHT22;15858;48.338;11.078;2023-02-13T01:55:59;1.70;99.90
28677;DHT22;15858;48.338;11.078;2023-02-13T01:58:30;1.90;99.90
28677;DHT22;15858;48.338;11.078;2023-02-13T02:00:58;1.80;99.90
28677;DHT22;15858;48.338;11.078;2023-02-13T02:03:47;1.80;99.90
28677;DHT22;15858;48.338;11.078;2023-02-13T02:06:24;1.70;99.90
28677;DHT22;15858;48.338;11.078;2023-02-13T02:08:52;1.70;99.90
28677;DHT22;15858;48.338;11.078;2023-02-13T02:11:26;1.60;99.90
28677;DHT22;15858;48.338;11.078;2023-02-13T02:13:54;1.60;99.90
28677;DHT22;15858;48.338;11.078;2023-02-13T02:16:24;1.70;99.90
28677;DHT22;15858;48.338;11.078;2023-02-13T02:18:51;1.70;99.90
28677;DHT22;15858;48.338;11.078;2023-02-13T02:21:44;1.80;99.90
28677;DHT22;15858;48.338;11.078;2023-02-13T02:27:20;1.90;99.90
28677;DHT22;15858;48.338;11.078;2023-02-13T02:36:20;1.70;99.90
28677;DHT22;15858;48.338;11.078;2023-02-13T02:39:13;1.70;99.90
28677;DHT22;15858;48.338;11.078;2023-02-13T02:42:25;1.60;99.90
28677;DHT22;15858;48.338;11.078;2023-02-13T02:45:10;1.70;99.90
28677;DHT22;15858;48.338;11.078;2023-02-13T02:47:49;1.70;99.90
28677;DHT22;15858;48.338;11.078;2023-02-13T02:53:14;1.50;99.90
28677;DHT22;15858;48.338;11.078;2023-02-13T02:55:51;1.70;99.90
28677;DHT22;15858;48.338;11.078;2023-02-13T03:01:23;1.60;99.90
28677;DHT22;15858;48.338;11.078;2023-02-13T03:03:51;1.70;99.90
28677;DHT22;15858;48.338;11.078;2023-02-13T03:06:35;1.80;99.90
28677;DHT22;15858;48.338;11.078;2023-02-13T03:09:06;1.70;99.90
28677;DHT22;15858;48.338;11.078;2023-02-13T03:11:36;1.70;99.90
28677;DHT22;15858;48.338;11.078;2023-02-13T03:14:05;1.50;99.90
28677;DHT22;15858;48.338;11.078;2023-02-13T03:16:33;1.50;99.90
28677;DHT22;15858;48.338;11.078;2023-02-13T03:19:00;1.50;99.90
28677;DHT22;15858;48.338;11.078;2023-02-13T03:21:48;1.50;99.90
28677;DHT22;15858;48.338;11.078;2023-02-13T03:26:55;1.50;99.90
28677;DHT22;15858;48.338;11.078;2023-02-13T03:32:25;1.70;99.90
28677;DHT22;15858;48.338;11.078;2023-02-13T03:37:43;1.70;99.90
28677;DHT22;15858;48.338;11.078;2023-02-13T03:40:34;1.60;99.90
28677;DHT22;15858;48.338;11.078;2023-02-13T03:43:11;1.50;99.90
28677;DHT22;15858;48.338;11.078;2023-02-13T03:45:42;1.50;99.90
28677;DHT22;15858;48.338;11.078;2023-02-13T03:48:14;1.60;99.90
28677;DHT22;15858;48.338;11.078;2023-02-13T03:50:43;1.60;99.90
28677;DHT22;15858;48.338;11.078;2023-02-13T03:53:12;1.60;99.90
28677;DHT22;15858;48.338;11.078;2023-02-13T03:55:42;1.50;99.90
28677;DHT22;15858;48.338;11.078;2023-02-13T03:58:18;1.50;99.90
28677;DHT22;15858;48.338;11.078;2023-02-13T04:00:51;1.40;99.90
28677;DHT22;15858;48.338;11.078;2023-02-13T04:03:30;1.30;99.90
28677;DHT22;15858;48.338;11.078;2023-02-13T04:06:08;1.40;99.90
28677;DHT22;15858;48.338;11.078;2023-02-13T04:08:36;1.30;99.90
28677;DHT22;15858;48.338;11.078;2023-02-13T04:11:10;1.30;99.90
28677;DHT22;15858;48.338;11.078;2023-02-13T04:16:44;1.50;99.90
28677;DHT22;15858;48.338;11.078;2023-02-13T04:19:10;1.60;99.90
28677;DHT22;15858;48.338;11.078;2023-02-13T04:21:38;1.50;99.90
28677;DHT22;15858;48.338;11.078;2023-02-13T04:24:06;1.50;99.90
28677;DHT22;15858;48.338;11.078;2023-02-13T04:26:39;1.50;99.90
28677;DHT22;15858;48.338;11.078;2023-02-13T04:29:06;1.60;99.90
28677;DHT22;15858;48.338;11.078;2023-02-13T04:31:33;1.50;99.90
28677;DHT22;15858;48.338;11.078;2023-02-13T04:34:00;1.50;99.90
28677;DHT22;15858;48.338;11.078;2023-02-13T04:36:27;1.40;99.90
28677;DHT22;15858;48.338;11.078;2023-02-13T04:38:54;1.30;99.90
28677;DHT22;15858;48.338;11.078;2023-02-13T04:41:21;1.30;99.90
28677;DHT22;15858;48.338;11.078;2023-02-13T04:43:48;1.30;99.90
28677;DHT22;15858;48.338;11.078;2023-02-13T04:46:14;1.30;99.90
28677;DHT22;15858;48.338;11.078;2023-02-13T04:48:41;1.30;99.90
28677;DHT22;15858;48.338;11.078;2023-02-13T04:51:08;1.30;99.90
28677;DHT22;15858;48.338;11.078;2023-02-13T04:53:34;1.30;99.90
28677;DHT22;15858;48.338;11.078;2023-02-13T04:56:01;1.30;99.90
28677;DHT22;15858;48.338;11.078;2023-02-13T04:58:27;1.40;99.90
28677;DHT22;15858;48.338;11.078;2023-02-13T05:00:54;1.40;99.90
28677;DHT22;15858;48.338;11.078;2023-02-13T05:03:21;1.40;99.90
28677;DHT22;15858;48.338;11.078;2023-02-13T05:05:48;1.30;99.90
28677;DHT22;15858;48.338;11.078;2023-02-13T05:08:15;1.40;99.90
28677;DHT22;15858;48.338;11.078;2023-02-13T05:10:42;1.30;99.90
28677;DHT22;15858;48.338;11.078;2023-02-13T05:13:08;1.30;99.90
28677;DHT22;15858;48.338;11.078;2023-02-13T05:15:35;1.30;99.90
28677;DHT22;15858;48.338;11.078;2023-02-13T05:18:01;1.40;99.90
28677;DHT22;15858;48.338;11.078;2023-02-13T05:20:28;1.50;99.90
28677;DHT22;15858;48.338;11.078;2023-02-13T05:22:54;1.40;99.90
28677;DHT22;15858;48.338;11.078;2023-02-13T05:25:21;1.40;99.90
28677;DHT22;15858;48.338;11.078;2023-02-13T05:27:48;1.40;99.90
28677;DHT22;15858;48.338;11.078;2023-02-13T05:30:14;1.40;99.90
28677;DHT22;15858;48.338;11.078;2023-02-13T05:32:41;1.40;99.90
28677;DHT22;15858;48.338;11.078;2023-02-13T05:35:08;1.40;99.90
28677;DHT22;15858;48.338;11.078;2023-02-13T05:37:35;1.30;99.90
28677;DHT22;15858;48.338;11.078;2023-02-13T05:40:02;1.30;99.90
28677;DHT22;15858;48.338;11.078;2023-02-13T05:42:29;1.30;99.90
28677;DHT22;15858;48.338;11.078;2023-02-13T05:44:55;1.30;99.90
28677;DHT22;15858;48.338;11.078;2023-02-13T05:47:22;1.30;99.90
28677;DHT22;15858;48.338;11.078;2023-02-13T05:49:48;1.30;99.90
28677;DHT22;15858;48.338;11.078;2023-02-13T05:52:15;1.30;99.90
28677;DHT22;15858;48.338;11.078;2023-02-13T05:54:41;1.30;99.90
28677;DHT22;15858;48.338;11.078;2023-02-13T05:57:08;1.30;99.90
28677;DHT22;15858;48.338;11.078;2023-02-13T05:59:34;1.30;99.90
28677;DHT22;15858;48.338;11.078;2023-02-13T06:02:01;1.30;99.90
28677;DHT22;15858;48.338;11.078;2023-02-13T06:04:28;1.50;99.90
28677;DHT22;15858;48.338;11.078;2023-02-13T06:06:54;1.40;99.90
28677;DHT22;15858;48.338;11.078;2023-02-13T06:09:21;1.60;99.90
28677;DHT22;15858;48.338;11.078;2023-02-13T06:11:48;1.50;99.90
28677;DHT22;15858;48.338;11.078;2023-02-13T06:14:14;1.50;99.90
28677;DHT22;15858;48.338;11.078;2023-02-13T06:16:41;1.40;99.90
28677;DHT22;15858;48.338;11.078;2023-02-13T06:19:08;1.40;99.90
28677;DHT22;15858;48.338;11.078;2023-02-13T06:21:34;1.40;99.90
28677;DHT22;15858;48.338;11.078;2023-02-13T06:24:01;1.40;99.90
28677;DHT22;15858;48.338;11.078;2023-02-13T06:26:27;1.40;99.90
28677;DHT22;15858;48.338;11.078;2023-02-13T06:28:54;1.40;99.90
28677;DHT22;15858;48.338;11.078;2023-02-13T06:31:21;1.40;99.90
28677;DHT22;15858;48.338;11.078;2023-02-13T06:33:47;1.40;99.90
28677;DHT22;15858;48.338;11.078;2023-02-13T06:36:14;1.40;99.90
28677;DHT22;15858;48.338;11.078;2023-02-13T06:38:41;1.40;99.90
28677;DHT22;15858;48.338;11.078;2023-02-13T06:41:07;1.40;99.90
28677;DHT22;15858;48.338;11.078;2023-02-13T06:43:34;1.40;99.90
28677;DHT22;15858;48.338;11.078;2023-02-13T06:46:05;1.40;99.90
28677;DHT22;15858;48.338;11.078;2023-02-13T06:48:33;1.40;99.90
28677;DHT22;15858;48.338;11.078;2023-02-13T06:50:59;1.40;99.90
28677;DHT22;15858;48.338;11.078;2023-02-13T06:53:27;1.40;99.90
28677;DHT22;15858;48.338;11.078;2023-02-13T06:55:54;1.40;99.90
28677;DHT22;15858;48.338;11.078;2023-02-13T06:58:22;1.40;99.90
28677;DHT22;15858;48.338;11.078;2023-02-13T07:00:50;1.50;99.90
28677;DHT22;15858;48.338;11.078;2023-02-13T07:03:17;1.50;99.90
28677;DHT22;15858;48.338;11.078;2023-02-13T07:05:44;1.50;99.90
28677;DHT22;15858;48.338;11.078;2023-02-13T07:08:12;1.50;99.90
28677;DHT22;15858;48.338;11.078;2023-02-13T07:10:40;1.50;99.90
28677;DHT22;15858;48.338;11.078;2023-02-13T07:13:08;1.50;99.90
28677;DHT22;15858;48.338;11.078;2023-02-13T07:15:35;1.50;99.90
28677;DHT22;15858;48.338;11.078;2023-02-13T07:18:03;1.50;99.90
28677;DHT22;15858;48.338;11.078;2023-02-13T07:20:30;1.50;99.90
28677;DHT22;15858;48.338;11.078;2023-02-13T07:23:02;1.50;99.90
28677;DHT22;15858;48.338;11.078;2023-02-13T07:25:29;1.50;99.90
28677;DHT22;15858;48.338;11.078;2023-02-13T07:28:03;1.50;99.90
28677;DHT22;15858;48.338;11.078;2023-02-13T07:30:31;1.50;99.90
28677;DHT22;15858;48.338;11.078;2023-02-13T07:33:00;1.50;99.90
28677;DHT22;15858;48.338;11.078;2023-02-13T07:35:27;1.50;99.90
28677;DHT22;15858;48.338;11.078;2023-02-13T07:37:54;1.50;99.90
28677;DHT22;15858;48.338;11.078;2023-02-13T07:40:21;1.50;99.90
28677;DHT22;15858;48.338;11.078;2023-02-13T07:42:47;1.60;99.90
28677;DHT22;15858;48.338;11.078;2023-02-13T07:45:14;1.70;99.90
28677;DHT22;15858;48.338;11.078;2023-02-13T07:47:41;1.60;99.90
28677;DHT22;15858;48.338;11.078;2023-02-13T07:50:08;1.60;99.90
28677;DHT22;15858;48.338;11.078;2023-02-13T07:52:35;1.60;99.90
28677;DHT22;15858;48.338;11.078;2023-02-13T07:55:02;1.50;99.90
28677;DHT22;15858;48.338;11.078;2023-02-13T07:57:29;1.50;99.90
28677;DHT22;15858;48.338;11.078;2023-02-13T07:59:56;1.60;99.90
28677;DHT22;15858;48.338;11.078;2023-02-13T08:02:22;1.60;99.90
28677;DHT22;15858;48.338;11.078;2023-02-13T08:04:49;1.60;99.90
28677;DHT22;15858;48.338;11.078;2023-02-13T08:07:16;1.70;99.90
28677;DHT22;15858;48.338;11.078;2023-02-13T08:09:44;1.70;99.90
28677;DHT22;15858;48.338;11.078;2023-02-13T08:12:11;1.60;99.90
28677;DHT22;15858;48.338;11.078;2023-02-13T08:14:37;1.70;99.90
28677;DHT22;15858;48.338;11.078;2023-02-13T08:17:04;1.70;99.90
28677;DHT22;15858;48.338;11.078;2023-02-13T08:19:30;1.70;99.90
28677;DHT22;15858;48.338;11.078;2023-02-13T08:21:57;1.70;99.90
28677;DHT22;15858;48.338;11.078;2023-02-13T08:24:23;1.70;99.90
28677;DHT22;15858;48.338;11.078;2023-02-13T08:26:50;1.90;99.90
28677;DHT22;15858;48.338;11.078;2023-02-13T08:29:17;1.80;99.90
28677;DHT22;15858;48.338;11.078;2023-02-13T08:31:44;1.80;99.90
28677;DHT22;15858;48.338;11.078;2023-02-13T08:34:10;1.70;99.90
28677;DHT22;15858;48.338;11.078;2023-02-13T08:36:37;1.80;99.90
28677;DHT22;15858;48.338;11.078;2023-02-13T08:39:04;1.80;99.90
28677;DHT22;15858;48.338;11.078;2023-02-13T08:41:30;1.70;99.90
28677;DHT22;15858;48.338;11.078;2023-02-13T08:43:57;1.70;99.90
28677;DHT22;15858;48.338;11.078;2023-02-13T08:46:26;1.70;99.90
28677;DHT22;15858;48.338;11.078;2023-02-13T08:48:54;1.80;99.90
28677;DHT22;15858;48.338;11.078;2023-02-13T08:51:20;1.80;99.90
28677;DHT22;15858;48.338;11.078;2023-02-13T08:53:47;1.80;99.90
28677;DHT22;15858;48.338;11.078;2023-02-13T08:56:14;1.70;99.90
28677;DHT22;15858;48.338;11.078;2023-02-13T08:58:40;1.70;99.90
28677;DHT22;15858;48.338;11.078;2023-02-13T09:01:07;1.80;99.90
28677;DHT22;15858;48.338;11.078;2023-02-13T09:03:34;1.70;99.90
28677;DHT22;15858;48.338;11.078;2023-02-13T09:06:02;1.80;99.90
28677;DHT22;15858;48.338;11.078;2023-02-13T09:08:28;1.70;99.90
28677;DHT22;15858;48.338;11.078;2023-02-13T09:11:01;1.80;99.90
28677;DHT22;15858;48.338;11.078;2023-02-13T09:13:29;1.70;99.90
28677;DHT22;15858;48.338;11.078;2023-02-13T09:15:59;1.80;99.90
28677;DHT22;15858;48.338;11.078;2023-02-13T09:18:27;1.80;99.90
28677;DHT22;15858;48.338;11.078;2023-02-13T09:23:25;2.20;99.90
28677;DHT22;15858;48.338;11.078;2023-02-13T09:25:52;2.10;99.90
28677;DHT22;15858;48.338;11.078;2023-02-13T09:28:18;2.10;99.90
28677;DHT22;15858;48.338;11.078;2023-02-13T09:30:45;2.20;99.90
28677;DHT22;15858;48.338;11.078;2023-02-13T09:33:12;2.20;99.90
28677;DHT22;15858;48.338;11.078;2023-02-13T09:35:38;2.10;99.90
28677;DHT22;15858;48.338;11.078;2023-02-13T09:38:05;2.00;99.90
28677;DHT22;15858;48.338;11.078;2023-02-13T09:46:41;1.90;99.90
28677;DHT22;15858;48.338;11.078;2023-02-13T09:49:17;1.80;99.90
28677;DHT22;15858;48.338;11.078;2023-02-13T09:51:55;1.80;99.90
28677;DHT22;15858;48.338;11.078;2023-02-13T09:54:22;1.90;99.90
28677;DHT22;15858;48.338;11.078;2023-02-13T09:57:06;1.80;99.90
28677;DHT22;15858;48.338;11.078;2023-02-13T09:59:56;1.60;99.90
28677;DHT22;15858;48.338;11.078;2023-02-13T10:08:27;2.00;99.90
28677;DHT22;15858;48.338;11.078;2023-02-13T10:14:13;2.10;99.90
28677;DHT22;15858;48.338;11.078;2023-02-13T10:16:54;2.10;99.90
28677;DHT22;15858;48.338;11.078;2023-02-13T10:19:34;2.30;99.90
28677;DHT22;15858;48.338;11.078;2023-02-13T10:22:19;2.30;99.90
28677;DHT22;15858;48.338;11.078;2023-02-13T10:25:15;2.30;99.90
28677;DHT22;15858;48.338;11.078;2023-02-13T10:27:55;2.30;99.90
28677;DHT22;15858;48.338;11.078;2023-02-13T10:30:32;2.10;99.90
28677;DHT22;15858;48.338;11.078;2023-02-13T10:33:12;2.10;99.90
28677;DHT22;15858;48.338;11.078;2023-02-13T10:38:31;2.30;99.90
28677;DHT22;15858;48.338;11.078;2023-02-13T10:41:22;2.20;99.90
28677;DHT22;15858;48.338;11.078;2023-02-13T10:46:53;2.20;99.90
28677;DHT22;15858;48.338;11.078;2023-02-13T10:49:41;2.20;99.90
28677;DHT22;15858;48.338;11.078;2023-02-13T11:00:30;2.10;99.90
28677;DHT22;15858;48.338;11.078;2023-02-13T11:02:58;2.30;99.90
28677;DHT22;15858;48.338;11.078;2023-02-13T11:05:30;2.40;99.90
28677;DHT22;15858;48.338;11.078;2023-02-13T11:07:58;2.40;99.90
28677;DHT22;15858;48.338;11.078;2023-02-13T11:10:26;2.40;99.90
28677;DHT22;15858;48.338;11.078;2023-02-13T11:12:53;2.40;99.90
28677;DHT22;15858;48.338;11.078;2023-02-13T11:15:28;2.30;99.90
28677;DHT22;15858;48.338;11.078;2023-02-13T11:18:01;2.30;99.90
28677;DHT22;15858;48.338;11.078;2023-02-13T11:20:33;2.40;99.90
28677;DHT22;15858;48.338;11.078;2023-02-13T11:25:56;2.50;99.90
28677;DHT22;15858;48.338;11.078;2023-02-13T11:28:30;2.60;99.90
28677;DHT22;15858;48.338;11.078;2023-02-13T11:33:47;2.50;99.90
28677;DHT22;15858;48.338;11.078;2023-02-13T11:36:31;2.30;99.90
28677;DHT22;15858;48.338;11.078;2023-02-13T11:39:04;2.50;99.90
28677;DHT22;15858;48.338;11.078;2023-02-13T11:41:40;2.40;99.90
28677;DHT22;15858;48.338;11.078;2023-02-13T11:44:29;2.40;99.90
28677;DHT22;15858;48.338;11.078;2023-02-13T11:46:58;2.60;99.90
28677;DHT22;15858;48.338;11.078;2023-02-13T11:49:27;2.40;99.90
28677;DHT22;15858;48.338;11.078;2023-02-13T11:51:59;2.40;99.90
28677;DHT22;15858;48.338;11.078;2023-02-13T11:57:14;2.60;99.90
28677;DHT22;15858;48.338;11.078;2023-02-13T11:59:44;2.60;99.90
28677;DHT22;15858;48.338;11.078;2023-02-13T12:02:20;2.50;99.90
28677;DHT22;15858;48.338;11.078;2023-02-13T12:04:50;2.60;99.90
28677;DHT22;15858;48.338;11.078;2023-02-13T12:07:43;2.60;99.90
28677;DHT22;15858;48.338;11.078;2023-02-13T12:12:50;2.60;99.90
28677;DHT22;15858;48.338;11.078;2023-02-13T12:28:56;2.80;99.90
28677;DHT22;15858;48.338;11.078;2023-02-13T12:39:35;2.70;99.90
28677;DHT22;15858;48.338;11.078;2023-02-13T12:42:28;2.80;99.90
28677;DHT22;15858;48.338;11.078;2023-02-13T12:48:28;2.80;99.90
28677;DHT22;15858;48.338;11.078;2023-02-13T12:51:24;2.80;99.90
28677;DHT22;15858;48.338;11.078;2023-02-13T12:57:05;2.60;99.90
28677;DHT22;15858;48.338;11.078;2023-02-13T13:05:39;2.80;99.90
28677;DHT22;15858;48.338;11.078;2023-02-13T13:11:16;2.60;99.90
28677;DHT22;15858;48.338;11.078;2023-02-13T13:17:53;2.70;99.90
28677;DHT22;15858;48.338;11.078;2023-02-13T13:25:17;2.70;99.90
28677;DHT22;15858;48.338;11.078;2023-02-13T13:27:50;2.70;99.90
28677;DHT22;15858;48.338;11.078;2023-02-13T13:30:29;2.60;99.90
28677;DHT22;15858;48.338;11.078;2023-02-13T13:33:10;2.60;99.90
28677;DHT22;15858;48.338;11.078;2023-02-13T13:35:52;2.70;99.90
28677;DHT22;15858;48.338;11.078;2023-02-13T13:41:26;2.80;99.90
28677;DHT22;15858;48.338;11.078;2023-02-13T13:49:53;2.70;99.90
28677;DHT22;15858;48.338;11.078;2023-02-13T13:52:28;2.70;99.90
28677;DHT22;15858;48.338;11.078;2023-02-13T13:54:57;2.70;99.90
28677;DHT22;15858;48.338;11.078;2023-02-13T14:00:00;2.70;99.90
28677;DHT22;15858;48.338;11.078;2023-02-13T14:05:27;2.60;99.90
28677;DHT22;15858;48.338;11.078;2023-02-13T14:07:56;2.50;99.90
28677;DHT22;15858;48.338;11.078;2023-02-13T14:20:50;2.60;99.90
28677;DHT22;15858;48.338;11.078;2023-02-13T14:31:31;2.70;99.90
28677;DHT22;15858;48.338;11.078;2023-02-13T14:36:39;2.70;99.90
28677;DHT22;15858;48.338;11.078;2023-02-13T14:39:26;2.90;99.90
28677;DHT22;15858;48.338;11.078;2023-02-13T14:46:55;2.70;99.90
28677;DHT22;15858;48.338;11.078;2023-02-13T14:49:24;2.60;99.90
28677;DHT22;15858;48.338;11.078;2023-02-13T14:54:28;2.70;99.90
28677;DHT22;15858;48.338;11.078;2023-02-13T14:57:19;2.70;99.90
28677;DHT22;15858;48.338;11.078;2023-02-13T14:59:49;2.70;99.90
28677;DHT22;15858;48.338;11.078;2023-02-13T15:02:24;2.60;99.90
28677;DHT22;15858;48.338;11.078;2023-02-13T15:05:09;2.50;99.90
28677;DHT22;15858;48.338;11.078;2023-02-13T15:07:44;2.40;99.90
28677;DHT22;15858;48.338;11.078;2023-02-13T15:13:04;2.30;99.90
28677;DHT22;15858;48.338;11.078;2023-02-13T15:15:33;2.30;99.90
28677;DHT22;15858;48.338;11.078;2023-02-13T15:18:03;2.30;99.90
28677;DHT22;15858;48.338;11.078;2023-02-13T15:20:41;2.30;99.90
28677;DHT22;15858;48.338;11.078;2023-02-13T15:23:18;2.40;99.90
28677;DHT22;15858;48.338;11.078;2023-02-13T15:25:46;2.40;99.90
28677;DHT22;15858;48.338;11.078;2023-02-13T15:28:19;2.40;99.90
28677;DHT22;15858;48.338;11.078;2023-02-13T15:33:33;2.30;99.90
28677;DHT22;15858;48.338;11.078;2023-02-13T15:36:04;2.30;99.90
28677;DHT22;15858;48.338;11.078;2023-02-13T15:38:33;2.40;99.90
28677;DHT22;15858;48.338;11.078;2023-02-13T15:41:03;2.50;99.90
28677;DHT22;15858;48.338;11.078;2023-02-13T15:43:34;2.50;99.90
28677;DHT22;15858;48.338;11.078;2023-02-13T15:46:17;2.40;99.90
28677;DHT22;15858;48.338;11.078;2023-02-13T15:48:45;2.40;99.90
28677;DHT22;15858;48.338;11.078;2023-02-13T15:51:20;2.30;99.90
28677;DHT22;15858;48.338;11.078;2023-02-13T15:56:17;2.40;99.90
28677;DHT22;15858;48.338;11.078;2023-02-13T15:58:44;2.40;99.90
28677;DHT22;15858;48.338;11.078;2023-02-13T16:01:12;2.30;99.90
28677;DHT22;15858;48.338;11.078;2023-02-13T16:03:41;2.30;99.90
28677;DHT22;15858;48.338;11.078;2023-02-13T16:06:14;2.30;99.90
28677;DHT22;15858;48.338;11.078;2023-02-13T16:08:55;2.40;99.90
28677;DHT22;15858;48.338;11.078;2023-02-13T16:11:34;2.30;99.90
28677;DHT22;15858;48.338;11.078;2023-02-13T16:14:06;2.40;99.90
28677;DHT22;15858;48.338;11.078;2023-02-13T16:16:45;2.50;99.90
28677;DHT22;15858;48.338;11.078;2023-02-13T16:21:53;2.40;99.90
28677;DHT22;15858;48.338;11.078;2023-02-13T16:24:20;2.60;99.90
28677;DHT22;15858;48.338;11.078;2023-02-13T16:26:48;2.60;99.90
28677;DHT22;15858;48.338;11.078;2023-02-13T16:29:20;2.60;99.90
28677;DHT22;15858;48.338;11.078;2023-02-13T16:31:49;2.50;99.90
28677;DHT22;15858;48.338;11.078;2023-02-13T16:34:23;2.50;99.90
28677;DHT22;15858;48.338;11.078;2023-02-13T16:36:50;2.50;99.90
28677;DHT22;15858;48.338;11.078;2023-02-13T16:39:20;2.40;99.90
28677;DHT22;15858;48.338;11.078;2023-02-13T16:41:49;2.40;99.90
28677;DHT22;15858;48.338;11.078;2023-02-13T16:44:30;2.30;99.90
28677;DHT22;15858;48.338;11.078;2023-02-13T16:47:03;2.40;99.90
28677;DHT22;15858;48.338;11.078;2023-02-13T16:49:35;2.40;99.90
28677;DHT22;15858;48.338;11.078;2023-02-13T16:52:16;2.40;99.90
28677;DHT22;15858;48.338;11.078;2023-02-13T16:59:48;2.20;99.90
28677;DHT22;15858;48.338;11.078;2023-02-13T17:07:17;2.20;99.90
28677;DHT22;15858;48.338;11.078;2023-02-13T17:09:51;2.20;99.90
28677;DHT22;15858;48.338;11.078;2023-02-13T17:12:18;2.10;99.90
28677;DHT22;15858;48.338;11.078;2023-02-13T17:14:45;1.90;99.90
28677;DHT22;15858;48.338;11.078;2023-02-13T17:17:15;2.00;99.90
28677;DHT22;15858;48.338;11.078;2023-02-13T17:19:42;2.00;99.90
28677;DHT22;15858;48.338;11.078;2023-02-13T17:22:26;2.00;99.90
28677;DHT22;15858;48.338;11.078;2023-02-13T17:24:53;2.10;99.90
28677;DHT22;15858;48.338;11.078;2023-02-13T17:27:20;2.30;99.90
28677;DHT22;15858;48.338;11.078;2023-02-13T17:29:48;2.10;99.90
28677;DHT22;15858;48.338;11.078;2023-02-13T17:32:17;2.10;99.90
28677;DHT22;15858;48.338;11.078;2023-02-13T17:34:45;2.30;99.90
28677;DHT22;15858;48.338;11.078;2023-02-13T17:37:17;2.20;99.90
28677;DHT22;15858;48.338;11.078;2023-02-13T17:39:45;2.10;99.90
28677;DHT22;15858;48.338;11.078;2023-02-13T17:42:16;2.10;99.90
28677;DHT22;15858;48.338;11.078;2023-02-13T17:44:43;2.10;99.90
28677;DHT22;15858;48.338;11.078;2023-02-13T17:47:10;2.20;99.90
28677;DHT22;15858;48.338;11.078;2023-02-13T17:49:36;2.10;99.90
28677;DHT22;15858;48.338;11.078;2023-02-13T17:52:03;2.10;99.90
28677;DHT22;15858;48.338;11.078;2023-02-13T17:54:30;2.10;99.90
28677;DHT22;15858;48.338;11.078;2023-02-13T17:56:56;2.30;99.90
28677;DHT22;15858;48.338;11.078;2023-02-13T17:59:23;2.30;99.90
28677;DHT22;15858;48.338;11.078;2023-02-13T18:01:51;2.10;99.90
28677;DHT22;15858;48.338;11.078;2023-02-13T18:04:17;2.10;99.90
28677;DHT22;15858;48.338;11.078;2023-02-13T18:06:44;2.10;99.90
28677;DHT22;15858;48.338;11.078;2023-02-13T18:09:11;2.10;99.90
28677;DHT22;15858;48.338;11.078;2023-02-13T18:11:37;2.00;99.90
28677;DHT22;15858;48.338;11.078;2023-02-13T18:14:04;2.00;99.90
28677;DHT22;15858;48.338;11.078;2023-02-13T18:16:31;2.00;99.90
28677;DHT22;15858;48.338;11.078;2023-02-13T18:18:57;2.00;99.90
28677;DHT22;15858;48.338;11.078;2023-02-13T18:21:24;2.10;99.90
28677;DHT22;15858;48.338;11.078;2023-02-13T18:23:51;2.10;99.90
28677;DHT22;15858;48.338;11.078;2023-02-13T18:26:18;2.30;99.90
28677;DHT22;15858;48.338;11.078;2023-02-13T18:28:45;2.20;99.90
28677;DHT22;15858;48.338;11.078;2023-02-13T18:31:11;2.20;99.90
28677;DHT22;15858;48.338;11.078;2023-02-13T18:33:38;2.10;99.90
28677;DHT22;15858;48.338;11.078;2023-02-13T18:36:05;2.10;99.90
28677;DHT22;15858;48.338;11.078;2023-02-13T18:38:31;2.10;99.90
28677;DHT22;15858;48.338;11.078;2023-02-13T18:40:58;2.20;99.90
28677;DHT22;15858;48.338;11.078;2023-02-13T18:43:25;2.10;99.90
28677;DHT22;15858;48.338;11.078;2023-02-13T18:45:52;2.00;99.90
28677;DHT22;15858;48.338;11.078;2023-02-13T18:48:19;2.10;99.90
28677;DHT22;15858;48.338;11.078;2023-02-13T18:50:46;2.20;99.90